Time;durP1;ratioP1;P1;durP2;ratioP2;P2;SDS_P1;SDS_P2;PMS_P1;PMS_P2;Temp;Humidity;BMP_temperature;BMP_pressure;BME280_temperature;BME280_humidity;BME280_pressure;Samples;Min_cycle;Max_cycle;Signal;HPM_P1;HPM_P2
2022/04/26 03:36:08;;;;;;;;;;;9.50;87.60;;;;;;5007423;28;20325;-79
2022/04/26 03:38:35;;;;;;;;;;;9.50;87.90;;;;;;5005894;28;20362;-78
2022/04/26 03:41:00;;;;;;;;;;;9.50;86.80;;;;;;5002034;28;20012;-78
2022/04/26 03:43:26;;;;;;;;;;;9.50;87.00;;;;;;4998271;28;20050;-78
2022/04/26 03:45:53;;;;;;;;;;;9.50;87.20;;;;;;5002490;28;20362;-79
2022/04/26 03:48:19;;;;;;;;;;;9.40;87.80;;;;;;5005658;28;19929;-79
2022/04/26 03:50:44;;;;;;;;;;;9.30;87.80;;;;;;4995032;28;19914;-79
2022/04/26 03:53:10;;;;;;;;;;;9.30;87.90;;;;;;5007797;28;19914;-78
2022/04/26 03:55:36;;;;;;;;;;;9.50;87.30;;;;;;5005168;28;20022;-78
2022/04/26 03:58:01;;;;;;;;;;;9.30;87.30;;;;;;4997695;28;20501;-78
2022/04/26 04:00:27;;;;;;;;;;;9.40;86.60;;;;;;5002165;28;20002;-79
2022/04/26 04:02:52;;;;;;;;;;;9.30;86.10;;;;;;4995620;28;19913;-79
2022/04/26 04:05:18;;;;;;;;;;;9.20;86.60;;;;;;4999793;28;20025;-78
2022/04/26 04:07:43;;;;;;;;;;;9.10;86.90;;;;;;4994916;28;19949;-78
2022/04/26 04:10:09;;;;;;;;;;;9.10;87.80;;;;;;4999657;28;20410;-78
2022/04/26 04:12:34;;;;;;;;;;;9.00;87.10;;;;;;5004030;28;19964;-79
2022/04/26 04:15:00;;;;;;;;;;;8.90;86.80;;;;;;5003270;28;19921;-79
2022/04/26 04:17:25;;;;;;;;;;;8.90;87.00;;;;;;4996829;28;19980;-78
2022/04/26 04:19:51;;;;;;;;;;;8.90;87.40;;;;;;4997979;28;19964;-78
2022/04/26 04:22:16;;;;;;;;;;;8.90;87.00;;;;;;4997697;28;19914;-77
2022/04/26 04:24:42;;;;;;;;;;;8.90;87.20;;;;;;5002146;28;20421;-79
2022/04/26 04:27:09;;;;;;;;;;;8.80;87.50;;;;;;5002140;28;19967;-78
2022/04/26 04:29:34;;;;;;;;;;;8.80;87.00;;;;;;4997632;28;20385;-78
2022/04/26 04:32:01;;;;;;;;;;;8.80;86.50;;;;;;5001577;28;19984;-78
2022/04/26 04:34:26;;;;;;;;;;;8.80;86.50;;;;;;4996225;28;19914;-78
2022/04/26 04:36:52;;;;;;;;;;;8.70;86.30;;;;;;5004622;28;19913;-78
2022/04/26 04:39:20;;;;;;;;;;;8.60;86.40;;;;;;5002468;28;20536;-78
2022/04/26 04:41:49;;;;;;;;;;;8.50;86.10;;;;;;5002430;28;20285;-78
2022/04/26 04:44:14;;;;;;;;;;;8.50;86.00;;;;;;4994174;28;20000;-78
2022/04/26 04:46:40;;;;;;;;;;;8.40;86.10;;;;;;5004255;28;20008;-78
2022/04/26 04:49:05;;;;;;;;;;;8.50;85.70;;;;;;4995058;28;19914;-78
2022/04/26 04:51:31;;;;;;;;;;;8.30;85.70;;;;;;4996879;28;20311;-78
2022/04/26 04:53:56;;;;;;;;;;;8.40;86.00;;;;;;5000688;28;19920;-78
2022/04/26 04:56:24;;;;;;;;;;;8.50;85.80;;;;;;5002866;28;19965;-81
2022/04/26 04:58:52;;;;;;;;;;;8.30;84.60;;;;;;5000821;28;19918;-78
2022/04/26 05:01:18;;;;;;;;;;;8.30;85.10;;;;;;5003136;28;19945;-79
2022/04/26 05:03:43;;;;;;;;;;;8.20;84.70;;;;;;4999784;28;19928;-79
2022/04/26 05:06:11;;;;;;;;;;;8.10;85.10;;;;;;4997668;28;19922;-78
2022/04/26 05:08:37;;;;;;;;;;;8.30;85.20;;;;;;5005714;28;20341;-77
2022/04/26 05:11:02;;;;;;;;;;;8.30;84.10;;;;;;4999865;28;19976;-77
2022/04/26 05:13:27;;;;;;;;;;;8.30;84.20;;;;;;4989891;28;19920;-77
2022/04/26 05:15:53;;;;;;;;;;;8.40;84.70;;;;;;5001633;28;20306;-77
2022/04/26 05:18:18;;;;;;;;;;;8.50;84.50;;;;;;5004640;28;19973;-77
2022/04/26 05:20:44;;;;;;;;;;;8.50;83.50;;;;;;5001913;28;20337;-77
2022/04/26 05:25:53;;;;;;;;;;;8.30;83.60;;;;;;4990145;28;19932;-77
2022/04/26 05:28:19;;;;;;;;;;;8.30;84.10;;;;;;4997182;28;19917;-77
2022/04/26 05:30:44;;;;;;;;;;;8.30;83.80;;;;;;4991545;28;19932;-78
2022/04/26 05:33:10;;;;;;;;;;;8.10;83.60;;;;;;4999902;28;20004;-78
2022/04/26 05:35:35;;;;;;;;;;;8.00;84.00;;;;;;4992385;28;19913;-81
2022/04/26 05:38:01;;;;;;;;;;;7.90;84.60;;;;;;4994922;28;19913;-79
2022/04/26 05:40:27;;;;;;;;;;;8.00;85.10;;;;;;4995488;28;19998;-78
2022/04/26 05:42:52;;;;;;;;;;;8.10;84.10;;;;;;4986524;28;19913;-78
2022/04/26 05:45:18;;;;;;;;;;;8.00;84.20;;;;;;5003791;28;19918;-78
2022/04/26 05:47:44;;;;;;;;;;;8.00;84.80;;;;;;5002884;28;19924;-78
2022/04/26 05:50:10;;;;;;;;;;;8.00;84.50;;;;;;4999884;28;19937;-78
2022/04/26 05:52:36;;;;;;;;;;;8.00;84.40;;;;;;5003236;28;19914;-77
2022/04/26 05:55:04;;;;;;;;;;;7.90;84.30;;;;;;5005309;28;19910;-78
2022/04/26 05:57:30;;;;;;;;;;;8.00;84.30;;;;;;5006298;28;19921;-78
2022/04/26 05:59:55;;;;;;;;;;;8.10;84.40;;;;;;5009277;28;19945;-78
2022/04/26 06:02:21;;;;;;;;;;;8.10;84.30;;;;;;5000290;28;20378;-78
2022/04/26 06:04:46;;;;;;;;;;;8.10;84.00;;;;;;5005813;28;19914;-78
2022/04/26 06:07:12;;;;;;;;;;;8.20;83.90;;;;;;4997339;28;19976;-78
2022/04/26 06:09:38;;;;;;;;;;;8.10;84.20;;;;;;4999530;28;19913;-77
2022/04/26 06:12:04;;;;;;;;;;;8.20;84.70;;;;;;4991920;28;20001;-78
2022/04/26 06:14:30;;;;;;;;;;;8.40;84.50;;;;;;5002293;28;19917;-78
2022/04/26 06:16:55;;;;;;;;;;;8.50;84.20;;;;;;4992991;28;20383;-77
2022/04/26 06:19:20;;;;;;;;;;;8.40;83.90;;;;;;4999530;28;20004;-77
2022/04/26 06:21:46;;;;;;;;;;;8.40;83.50;;;;;;4997773;28;20374;-77
2022/04/26 06:24:12;;;;;;;;;;;8.40;83.70;;;;;;5001334;28;20675;-77
2022/04/26 06:26:37;;;;;;;;;;;8.40;84.50;;;;;;4993619;28;21879;-77
2022/04/26 06:29:03;;;;;;;;;;;8.50;83.90;;;;;;5001066;28;20429;-77
2022/04/26 06:31:28;;;;;;;;;;;8.40;83.70;;;;;;5007210;28;20441;-78
2022/04/26 06:33:54;;;;;;;;;;;8.40;83.30;;;;;;5014552;28;20003;-77
2022/04/26 06:36:20;;;;;;;;;;;8.40;83.80;;;;;;4999114;28;19913;-78
2022/04/26 06:38:45;;;;;;;;;;;8.40;84.00;;;;;;5004510;28;19972;-78
2022/04/26 06:41:11;;;;;;;;;;;8.40;83.80;;;;;;5001119;28;19914;-78
2022/04/26 06:43:36;;;;;;;;;;;8.30;84.00;;;;;;5003983;28;20299;-77
2022/04/26 06:46:02;;;;;;;;;;;8.30;84.60;;;;;;4999808;28;19925;-78
2022/04/26 06:48:27;;;;;;;;;;;8.60;84.60;;;;;;5007420;28;19917;-79
2022/04/26 06:50:53;;;;;;;;;;;8.50;83.60;;;;;;4995033;28;20603;-78
2022/04/26 06:53:19;;;;;;;;;;;8.50;84.30;;;;;;4991913;28;20508;-78
2022/04/26 06:55:44;;;;;;;;;;;8.60;83.50;;;;;;4989020;28;20358;-78
2022/04/26 06:58:10;;;;;;;;;;;8.60;83.70;;;;;;4995660;28;19997;-82
2022/04/26 07:00:35;;;;;;;;;;;8.80;83.80;;;;;;4998956;28;20126;-80
2022/04/26 07:03:01;;;;;;;;;;;8.90;83.70;;;;;;4998290;28;19913;-79
2022/04/26 07:05:26;;;;;;;;;;;9.10;83.10;;;;;;5002670;28;19921;-81
2022/04/26 07:07:52;;;;;;;;;;;9.00;83.10;;;;;;5002724;28;19913;-83
2022/04/26 07:10:18;;;;;;;;;;;8.90;83.20;;;;;;5005794;28;19914;-82
2022/04/26 07:12:43;;;;;;;;;;;9.00;83.40;;;;;;5005980;28;19913;-81
2022/04/26 07:15:09;;;;;;;;;;;9.10;83.40;;;;;;5004271;28;19917;-82
2022/04/26 07:17:37;;;;;;;;;;;9.30;83.40;;;;;;5004294;28;19985;-81
2022/04/26 07:20:03;;;;;;;;;;;9.70;82.70;;;;;;5013618;28;19943;-81
2022/04/26 07:22:29;;;;;;;;;;;9.80;81.50;;;;;;5005428;28;19924;-84
2022/04/26 07:24:56;;;;;;;;;;;9.70;81.40;;;;;;5016958;28;19941;-84
2022/04/26 07:27:22;;;;;;;;;;;9.90;81.50;;;;;;4999824;28;19967;-84
2022/04/26 07:29:51;;;;;;;;;;;10.00;81.80;;;;;;5005074;28;19925;-83
2022/04/26 07:32:17;;;;;;;;;;;10.10;81.80;;;;;;5008708;28;19921;-83
2022/04/26 07:34:42;;;;;;;;;;;10.20;81.20;;;;;;5006972;28;19921;-82
2022/04/26 07:37:08;;;;;;;;;;;10.30;81.30;;;;;;5007067;28;19960;-83
2022/04/26 07:39:34;;;;;;;;;;;10.30;81.20;;;;;;5002087;28;19928;-81
2022/04/26 07:42:00;;;;;;;;;;;10.30;81.30;;;;;;5002178;28;19973;-82
2022/04/26 07:44:26;;;;;;;;;;;10.40;81.20;;;;;;4997397;28;20444;-81
2022/04/26 07:46:52;;;;;;;;;;;10.40;80.70;;;;;;5000629;28;19964;-83
2022/04/26 07:49:23;;;;;;;;;;;10.50;81.30;;;;;;5003906;28;19922;-81
2022/04/26 07:51:48;;;;;;;;;;;10.60;80.60;;;;;;5000339;28;19984;-81
2022/04/26 07:54:15;;;;;;;;;;;10.60;80.70;;;;;;4995717;28;20382;-82
2022/04/26 07:56:41;;;;;;;;;;;10.60;81.10;;;;;;5000483;28;20063;-82
2022/04/26 07:59:06;;;;;;;;;;;10.50;81.40;;;;;;4996520;28;20405;-81
2022/04/26 08:01:32;;;;;;;;;;;10.40;80.90;;;;;;5003725;28;19920;-82
2022/04/26 08:03:58;;;;;;;;;;;10.50;81.00;;;;;;4996692;28;19922;-82
2022/04/26 08:06:24;;;;;;;;;;;10.60;80.30;;;;;;4994890;28;20401;-81
2022/04/26 08:08:49;;;;;;;;;;;10.80;79.70;;;;;;5003029;28;19914;-81
2022/04/26 08:11:15;;;;;;;;;;;10.70;80.30;;;;;;4994361;28;19948;-81
2022/04/26 08:13:41;;;;;;;;;;;10.60;80.70;;;;;;5000979;28;20277;-81
2022/04/26 08:16:07;;;;;;;;;;;10.60;81.20;;;;;;4998304;28;19964;-82
2022/04/26 08:18:32;;;;;;;;;;;10.70;80.60;;;;;;4994147;28;19917;-81
2022/04/26 08:20:58;;;;;;;;;;;10.60;80.90;;;;;;5000758;28;19917;-83
2022/04/26 08:23:23;;;;;;;;;;;10.70;81.40;;;;;;4998189;28;20334;-83
2022/04/26 08:28:33;;;;;;;;;;;11.10;80.20;;;;;;4995340;28;19971;-84
2022/04/26 08:31:00;;;;;;;;;;;11.20;79.60;;;;;;4997564;28;20391;-80
2022/04/26 08:33:30;;;;;;;;;;;11.10;79.20;;;;;;4998025;28;19953;-81
2022/04/26 08:35:55;;;;;;;;;;;11.30;78.90;;;;;;5001867;28;19918;-81
2022/04/26 08:38:21;;;;;;;;;;;11.30;79.30;;;;;;5007261;28;19913;-81
2022/04/26 08:40:47;;;;;;;;;;;11.30;79.60;;;;;;5003253;28;19941;-82
2022/04/26 08:43:12;;;;;;;;;;;11.40;79.20;;;;;;4991719;28;19920;-81
2022/04/26 08:45:38;;;;;;;;;;;11.40;79.00;;;;;;5001113;28;19992;-81
2022/04/26 08:51:04;;;;;;;;;;;11.50;79.10;;;;;;4995848;28;19936;-81
2022/04/26 08:53:33;;;;;;;;;;;11.60;77.50;;;;;;4998625;28;19921;-82
2022/04/26 08:56:01;;;;;;;;;;;11.50;77.80;;;;;;4998114;28;19972;-81
2022/04/26 08:58:29;;;;;;;;;;;11.40;79.00;;;;;;4998326;28;19972;-82
2022/04/26 09:01:06;;;;;;;;;;;11.40;79.80;;;;;;4998562;28;19992;-85
2022/04/26 09:03:33;;;;;;;;;;;11.30;78.10;;;;;;5001794;28;20414;-86
2022/04/26 09:06:11;;;;;;;;;;;11.40;78.10;;;;;;4994184;28;20019;-86
2022/04/26 09:08:37;;;;;;;;;;;11.30;77.80;;;;;;4994551;28;19914;-85
2022/04/26 09:11:03;;;;;;;;;;;11.50;77.40;;;;;;4999915;28;19929;-85
2022/04/26 09:13:36;;;;;;;;;;;11.40;77.50;;;;;;4998023;28;19960;-84
2022/04/26 09:16:02;;;;;;;;;;;11.50;76.60;;;;;;5000720;28;19922;-84
2022/04/26 09:18:30;;;;;;;;;;;11.70;76.50;;;;;;4996878;28;19924;-84
2022/04/26 09:20:56;;;;;;;;;;;11.80;77.10;;;;;;5002488;28;20292;-84
2022/04/26 09:23:23;;;;;;;;;;;11.90;76.80;;;;;;5004186;28;19914;-85
2022/04/26 09:25:51;;;;;;;;;;;12.10;76.50;;;;;;4998901;28;19917;-85
2022/04/26 09:28:24;;;;;;;;;;;12.20;75.20;;;;;;5013342;28;20040;-85
2022/04/26 09:30:50;;;;;;;;;;;12.50;75.90;;;;;;4993853;28;20003;-85
2022/04/26 09:33:39;;;;;;;;;;;12.60;75.40;;;;;;4995727;28;20746;-83
2022/04/26 09:36:06;;;;;;;;;;;12.90;74.40;;;;;;4998410;28;20432;-85
2022/04/26 09:38:34;;;;;;;;;;;13.10;73.20;;;;;;4998006;28;20514;-84
2022/04/26 09:41:01;;;;;;;;;;;13.30;73.10;;;;;;4999808;28;19963;-84
2022/04/26 09:46:21;;;;;;;;;;;13.60;72.80;;;;;;5000892;28;19928;-84
2022/04/26 09:49:04;;;;;;;;;;;13.50;70.50;;;;;;5001778;28;20004;-84
2022/04/26 09:51:33;;;;;;;;;;;13.50;70.90;;;;;;4995903;28;19918;-84
2022/04/26 09:54:02;;;;;;;;;;;13.60;70.70;;;;;;4996160;28;20316;-84
2022/04/26 09:56:32;;;;;;;;;;;13.70;69.40;;;;;;4998116;28;19917;-83
2022/04/26 09:58:59;;;;;;;;;;;13.60;69.30;;;;;;5010009;28;19928;-83
2022/04/26 10:01:45;;;;;;;;;;;13.50;69.90;;;;;;5014653;28;19972;-83
2022/04/26 10:04:13;;;;;;;;;;;13.40;70.30;;;;;;5005841;28;19910;-82
2022/04/26 10:06:39;;;;;;;;;;;13.50;70.40;;;;;;5009954;28;19921;-83
2022/04/26 10:09:05;;;;;;;;;;;13.50;70.40;;;;;;5003232;28;19910;-84
2022/04/26 10:11:31;;;;;;;;;;;13.40;69.80;;;;;;5004706;28;20641;-81
2022/04/26 10:13:57;;;;;;;;;;;13.20;70.40;;;;;;5017206;28;19992;-82
2022/04/26 10:16:23;;;;;;;;;;;13.20;70.30;;;;;;5009306;28;19964;-83
2022/04/26 10:18:49;;;;;;;;;;;13.10;70.80;;;;;;5001143;28;19928;-81
2022/04/26 10:21:20;;;;;;;;;;;13.00;70.20;;;;;;5002416;28;19949;-80
2022/04/26 10:24:06;;;;;;;;;;;12.80;70.80;;;;;;5003587;28;19959;-84
2022/04/26 10:26:33;;;;;;;;;;;12.80;71.30;;;;;;5000552;28;19918;-81
2022/04/26 10:29:00;;;;;;;;;;;12.80;71.40;;;;;;5003517;28;19914;-83
2022/04/26 10:31:49;;;;;;;;;;;12.80;71.80;;;;;;5010473;28;19965;-83
2022/04/26 10:34:16;;;;;;;;;;;12.90;73.00;;;;;;4994754;28;21072;-83
2022/04/26 10:36:42;;;;;;;;;;;13.10;71.30;;;;;;5003029;28;19913;-82
2022/04/26 10:39:08;;;;;;;;;;;13.10;71.20;;;;;;4993518;28;19924;-82
2022/04/26 10:41:34;;;;;;;;;;;13.30;70.40;;;;;;4997467;28;19918;-85
2022/04/26 10:44:21;;;;;;;;;;;13.60;71.30;;;;;;4995500;28;20028;-83
2022/04/26 10:46:55;;;;;;;;;;;13.70;70.60;;;;;;4999580;28;19918;-83
2022/04/26 10:49:27;;;;;;;;;;;13.80;70.20;;;;;;5000863;28;19995;-83
2022/04/26 10:51:58;;;;;;;;;;;14.00;70.50;;;;;;5011231;28;19924;-86
2022/04/26 10:54:42;;;;;;;;;;;14.10;66.50;;;;;;5024478;28;19928;-86
2022/04/26 10:57:08;;;;;;;;;;;14.10;67.60;;;;;;5016906;28;19975;-84
2022/04/26 10:59:33;;;;;;;;;;;14.00;69.60;;;;;;5012201;28;20294;-84
2022/04/26 11:02:00;;;;;;;;;;;14.00;70.60;;;;;;5000752;28;19956;-82
2022/04/26 11:04:25;;;;;;;;;;;14.00;68.40;;;;;;5006215;28;19968;-82
2022/04/26 11:06:51;;;;;;;;;;;14.10;69.40;;;;;;5001318;28;20011;-84
2022/04/26 11:09:17;;;;;;;;;;;14.30;69.00;;;;;;5018626;28;20219;-87
2022/04/26 11:11:55;;;;;;;;;;;14.50;69.00;;;;;;5028754;28;19925;-85
2022/04/26 11:14:28;;;;;;;;;;;14.70;68.50;;;;;;5012680;28;19914;-86
2022/04/26 11:16:54;;;;;;;;;;;14.90;67.10;;;;;;5001759;28;20040;-84
2022/04/26 11:19:33;;;;;;;;;;;15.10;64.80;;;;;;5007922;28;20008;-82
2022/04/26 11:22:05;;;;;;;;;;;15.10;62.90;;;;;;5004906;28;19914;-84
2022/04/26 11:29:59;;;;;;;;;;;15.60;61.20;;;;;;5007808;28;19937;-84
2022/04/26 11:32:32;;;;;;;;;;;15.50;61.20;;;;;;5003947;28;19918;-84
2022/04/26 11:34:58;;;;;;;;;;;15.30;61.00;;;;;;4995964;28;19921;-85
2022/04/26 11:37:23;;;;;;;;;;;15.20;61.50;;;;;;4998070;28;19937;-84
2022/04/26 11:39:49;;;;;;;;;;;15.20;61.10;;;;;;5002126;28;20385;-85
2022/04/26 11:42:16;;;;;;;;;;;15.30;61.80;;;;;;5005064;28;19951;-84
2022/04/26 11:45:01;;;;;;;;;;;15.20;61.90;;;;;;5011513;28;20476;-85
2022/04/26 11:47:44;;;;;;;;;;;15.20;61.80;;;;;;5002606;28;19979;-85
2022/04/26 11:50:10;;;;;;;;;;;15.10;62.20;;;;;;5003738;28;19993;-85
2022/04/26 11:52:36;;;;;;;;;;;15.00;62.80;;;;;;5004062;28;19925;-86
2022/04/26 11:55:01;;;;;;;;;;;15.20;62.00;;;;;;4997251;28;19917;-83
2022/04/26 11:57:28;;;;;;;;;;;15.50;61.70;;;;;;5001111;28;19922;-85
2022/04/26 11:59:53;;;;;;;;;;;15.70;61.70;;;;;;4997960;28;19933;-86
2022/04/26 12:02:19;;;;;;;;;;;15.70;60.90;;;;;;5001351;28;19921;-85
2022/04/26 12:04:45;;;;;;;;;;;15.80;60.50;;;;;;4997422;28;20021;-84
2022/04/26 12:07:10;;;;;;;;;;;16.00;60.40;;;;;;4997664;28;20310;-82
2022/04/26 12:09:36;;;;;;;;;;;16.00;59.00;;;;;;5007037;28;19961;-84
2022/04/26 12:12:03;;;;;;;;;;;15.80;60.80;;;;;;5008224;28;19968;-84
2022/04/26 12:14:28;;;;;;;;;;;15.60;59.60;;;;;;5004784;28;19937;-83
2022/04/26 12:16:57;;;;;;;;;;;15.40;60.50;;;;;;5006929;28;19940;-83
2022/04/26 12:19:45;;;;;;;;;;;15.20;62.10;;;;;;5007632;28;19922;-84
2022/04/26 12:22:10;;;;;;;;;;;15.10;60.60;;;;;;5004426;28;19914;-83
2022/04/26 12:24:47;;;;;;;;;;;15.20;61.20;;;;;;4999046;28;19963;-83
2022/04/26 12:27:14;;;;;;;;;;;15.10;62.60;;;;;;5003300;28;20786;-84
2022/04/26 12:29:41;;;;;;;;;;;15.10;63.70;;;;;;5004742;28;20315;-83
2022/04/26 12:32:07;;;;;;;;;;;15.00;63.10;;;;;;5002052;28;19922;-84
2022/04/26 12:34:33;;;;;;;;;;;15.00;63.20;;;;;;4990053;28;20377;-83
2022/04/26 12:37:03;;;;;;;;;;;15.00;64.60;;;;;;4998584;28;19985;-83
2022/04/26 12:39:38;;;;;;;;;;;14.90;64.00;;;;;;4993932;28;19914;-84
2022/04/26 12:42:04;;;;;;;;;;;14.80;63.40;;;;;;5004726;28;19913;-85
2022/04/26 12:44:29;;;;;;;;;;;14.70;64.60;;;;;;4999336;28;19914;-85
2022/04/26 12:50:33;;;;;;;;;;;13.70;74.30;;;;;;5002220;28;19920;-80
2022/04/26 12:53:00;;;;;;;;;;;13.10;79.10;;;;;;4945992;28;19923;-80
2022/04/26 12:55:27;;;;;;;;;;;12.60;82.00;;;;;;4997089;28;19918;-80
2022/04/26 12:57:53;;;;;;;;;;;12.30;82.90;;;;;;5002369;28;20045;-79
2022/04/26 13:00:20;;;;;;;;;;;12.20;83.30;;;;;;5011199;28;19917;-79
2022/04/26 13:02:50;;;;;;;;;;;12.10;82.80;;;;;;5022870;22;19925;-84
2022/04/26 13:05:15;;;;;;;;;;;12.20;84.50;;;;;;5016512;22;20141;-78
2022/04/26 13:07:41;;;;;;;;;;;12.30;83.60;;;;;;5016963;28;20749;-78
2022/04/26 13:10:07;;;;;;;;;;;12.20;83.20;;;;;;5017317;28;20552;-78
2022/04/26 13:12:33;;;;;;;;;;;12.10;83.60;;;;;;5018583;28;19913;-79
2022/04/26 13:14:59;;;;;;;;;;;11.90;82.30;;;;;;5017091;28;19913;-79
2022/04/26 13:17:25;;;;;;;;;;;11.70;83.30;;;;;;5017405;28;20248;-78
2022/04/26 13:19:50;;;;;;;;;;;11.70;83.80;;;;;;5018294;28;20807;-78
2022/04/26 13:22:16;;;;;;;;;;;11.70;84.20;;;;;;5013845;28;20261;-78
2022/04/26 13:24:42;;;;;;;;;;;11.70;83.60;;;;;;5015903;28;20219;-80
2022/04/26 13:27:08;;;;;;;;;;;11.80;84.60;;;;;;5016004;28;20139;-78
2022/04/26 13:29:33;;;;;;;;;;;11.70;84.00;;;;;;5015303;28;20175;-83
2022/04/26 13:31:59;;;;;;;;;;;11.70;84.30;;;;;;5025561;28;19909;-80
2022/04/26 13:34:24;;;;;;;;;;;11.70;85.20;;;;;;5016613;28;19914;-81
2022/04/26 13:36:51;;;;;;;;;;;11.70;84.20;;;;;;5020744;28;19913;-80
2022/04/26 13:39:17;;;;;;;;;;;11.80;84.50;;;;;;5022081;28;19913;-81
2022/04/26 13:41:42;;;;;;;;;;;11.80;83.40;;;;;;5037958;28;20283;-81
2022/04/26 13:44:07;;;;;;;;;;;11.80;84.50;;;;;;5038573;28;19909;-81
2022/04/26 13:46:33;;;;;;;;;;;11.90;84.40;;;;;;5029574;28;19916;-80
2022/04/26 13:48:58;;;;;;;;;;;11.90;84.10;;;;;;5018608;28;20842;-79
2022/04/26 13:51:29;;;;;;;;;;;11.90;83.30;;;;;;4998676;28;19987;-80
2022/04/26 13:53:54;;;;;;;;;;;12.00;83.10;;;;;;5002730;28;19909;-78
2022/04/26 13:56:20;;;;;;;;;;;12.10;83.60;;;;;;5024406;28;19978;-80
2022/04/26 13:58:45;;;;;;;;;;;12.30;84.60;;;;;;5024580;28;19924;-81
2022/04/26 14:01:11;;;;;;;;;;;12.50;84.10;;;;;;5012684;28;19923;-83
2022/04/26 14:03:39;;;;;;;;;;;12.70;83.20;;;;;;5041051;28;19920;-81
2022/04/26 14:06:04;;;;;;;;;;;12.80;83.30;;;;;;5056191;28;19986;-79
2022/04/26 14:08:31;;;;;;;;;;;13.00;82.60;;;;;;5056490;28;19913;-81
2022/04/26 14:10:57;;;;;;;;;;;13.10;83.00;;;;;;5020553;28;20410;-79
2022/04/26 14:13:22;;;;;;;;;;;13.20;81.50;;;;;;5012631;28;19948;-78
2022/04/26 14:24:04;;;;;;;;;;;13.50;82.50;;;;;;5012119;28;19974;-78
2022/04/26 14:26:30;;;;;;;;;;;13.60;82.50;;;;;;5005524;28;20028;-78
2022/04/26 14:28:55;;;;;;;;;;;13.50;83.00;;;;;;5004300;28;19996;-79
2022/04/26 14:31:21;;;;;;;;;;;13.40;82.50;;;;;;5012174;28;20665;-79
2022/04/26 14:33:46;;;;;;;;;;;13.30;82.70;;;;;;5016514;28;19986;-79
2022/04/26 14:36:12;;;;;;;;;;;13.20;82.50;;;;;;5013594;28;19909;-78
2022/04/26 14:38:37;;;;;;;;;;;13.40;83.70;;;;;;5006533;28;19997;-79
2022/04/26 14:41:03;;;;;;;;;;;13.40;84.30;;;;;;5010604;28;19955;-78
2022/04/26 14:43:28;;;;;;;;;;;13.30;84.40;;;;;;5006840;28;20109;-81
2022/04/26 14:45:55;;;;;;;;;;;13.30;84.70;;;;;;5016053;28;19986;-78
2022/04/26 14:48:23;;;;;;;;;;;13.20;83.40;;;;;;5022056;28;19970;-80
2022/04/26 14:50:51;;;;;;;;;;;13.20;83.00;;;;;;5012433;28;19995;-80
2022/04/26 14:53:18;;;;;;;;;;;13.10;83.00;;;;;;5011613;28;19909;-80
2022/04/26 14:55:44;;;;;;;;;;;13.10;82.90;;;;;;5007460;28;19934;-79
2022/04/26 14:58:12;;;;;;;;;;;13.10;83.40;;;;;;5020685;28;19925;-80
2022/04/26 15:00:37;;;;;;;;;;;13.30;82.30;;;;;;5009318;28;20438;-83
2022/04/26 15:03:03;;;;;;;;;;;13.30;83.20;;;;;;4982730;28;19913;-80
2022/04/26 15:05:28;;;;;;;;;;;12.80;78.70;;;;;;4994534;28;19955;-79
2022/04/26 15:10:38;;;;;;;;;;;12.10;79.90;;;;;;4988695;28;20707;-82
2022/04/26 15:18:34;;;;;;;;;;;11.60;80.30;;;;;;4999169;28;20401;-80
2022/04/26 15:21:01;;;;;;;;;;;11.60;80.60;;;;;;5003303;28;20090;-81
2022/04/26 15:23:26;;;;;;;;;;;11.60;81.30;;;;;;5037696;28;19913;-82
2022/04/26 15:25:53;;;;;;;;;;;11.70;81.60;;;;;;5063525;28;20213;-81
2022/04/26 15:28:19;;;;;;;;;;;11.70;83.30;;;;;;5056289;28;19917;-83
2022/04/26 15:30:45;;;;;;;;;;;11.70;83.20;;;;;;5060869;28;19900;-82
2022/04/26 15:33:10;;;;;;;;;;;11.70;83.10;;;;;;5040844;28;20304;-84
2022/04/26 15:35:36;;;;;;;;;;;11.80;83.00;;;;;;5047541;28;20192;-83
2022/04/26 15:38:03;;;;;;;;;;;11.80;82.20;;;;;;5031946;28;20230;-84
2022/04/26 15:40:28;;;;;;;;;;;11.90;82.90;;;;;;5027708;28;20295;-82
2022/04/26 15:42:53;;;;;;;;;;;12.10;80.80;;;;;;5035837;28;19913;-80
2022/04/26 15:45:19;;;;;;;;;;;12.20;82.70;;;;;;5035380;28;19912;-82
2022/04/26 15:47:44;;;;;;;;;;;12.30;82.20;;;;;;5034297;28;19917;-80
2022/04/26 15:50:12;;;;;;;;;;;12.50;82.40;;;;;;5039413;28;19989;-80
2022/04/26 15:52:40;;;;;;;;;;;12.60;82.00;;;;;;5039065;28;19913;-83
2022/04/26 15:55:05;;;;;;;;;;;12.60;81.20;;;;;;5037381;28;20407;-81
2022/04/26 15:57:31;;;;;;;;;;;12.60;79.70;;;;;;5035493;28;19921;-83
2022/04/26 15:59:57;;;;;;;;;;;12.40;80.00;;;;;;5036575;28;20372;-79
2022/04/26 16:02:23;;;;;;;;;;;12.40;79.20;;;;;;5046278;28;19921;-81
2022/04/26 16:04:49;;;;;;;;;;;12.20;79.30;;;;;;5003939;28;19923;-79
2022/04/26 16:07:15;;;;;;;;;;;12.30;79.80;;;;;;4996631;28;19913;-78
2022/04/26 16:20:38;;;;;;;;;;;11.90;85.30;;;;;;5009779;28;19936;-81
2022/04/26 16:23:05;;;;;;;;;;;11.90;85.30;;;;;;4999417;28;20352;-81
2022/04/26 16:25:30;;;;;;;;;;;11.90;85.40;;;;;;5008620;28;19912;-81
2022/04/26 16:28:00;;;;;;;;;;;12.10;85.00;;;;;;5013889;28;19991;-81
2022/04/26 16:30:28;;;;;;;;;;;12.20;83.60;;;;;;5009795;28;20034;-82
2022/04/26 16:32:54;;;;;;;;;;;12.20;84.30;;;;;;5021688;28;19924;-84
2022/04/26 16:35:21;;;;;;;;;;;12.20;84.60;;;;;;5032057;28;20252;-85
2022/04/26 16:37:46;;;;;;;;;;;12.00;85.10;;;;;;5035016;28;19909;-84
2022/04/26 16:40:12;;;;;;;;;;;11.80;85.90;;;;;;5024960;28;19902;-84
2022/04/26 16:42:39;;;;;;;;;;;11.80;86.30;;;;;;5032053;28;20249;-85
2022/04/26 16:45:10;;;;;;;;;;;11.80;86.50;;;;;;5021993;28;19908;-89
2022/04/26 16:47:38;;;;;;;;;;;11.80;87.00;;;;;;5036521;28;19917;-88
2022/04/26 16:50:04;;;;;;;;;;;11.80;87.30;;;;;;5043255;28;19941;-90
2022/04/26 16:52:30;;;;;;;;;;;12.00;87.00;;;;;;5045537;28;20012;-90
2022/04/26 16:54:56;;;;;;;;;;;12.10;85.40;;;;;;5031034;28;20012;-87
2022/04/26 16:57:31;;;;;;;;;;;11.80;85.40;;;;;;5016869;28;19956;-87
2022/04/26 17:00:00;;;;;;;;;;;11.80;85.50;;;;;;5031876;28;19913;-88
2022/04/26 17:02:30;;;;;;;;;;;11.80;85.10;;;;;;5048071;28;20376;-86
2022/04/26 17:04:56;;;;;;;;;;;11.80;85.80;;;;;;5044787;28;19973;-87
2022/04/26 17:07:21;;;;;;;;;;;11.90;85.30;;;;;;5009215;28;20871;-80
2022/04/26 17:09:47;;;;;;;;;;;12.00;85.00;;;;;;5000463;28;19920;-81
2022/04/26 17:12:14;;;;;;;;;;;12.00;84.40;;;;;;5014473;28;19963;-79
2022/04/26 17:14:40;;;;;;;;;;;12.20;84.80;;;;;;4997686;28;20072;-81
2022/04/26 17:17:06;;;;;;;;;;;12.40;84.20;;;;;;5029385;28;20418;-80
2022/04/26 17:19:32;;;;;;;;;;;12.30;84.30;;;;;;5019841;28;20822;-82
2022/04/26 17:21:59;;;;;;;;;;;12.50;84.20;;;;;;5016547;28;20098;-83
2022/04/26 17:27:11;;;;;;;;;;;12.60;83.20;;;;;;5019841;28;19924;-81
2022/04/26 17:29:37;;;;;;;;;;;12.70;83.60;;;;;;5011427;28;19909;-84
2022/04/26 17:32:16;;;;;;;;;;;;;;;;;;;;;
2022/04/26 17:34:43;;;;;;;;;;;12.90;83.60;;;;;;5026515;28;19909;-85
2022/04/26 17:37:09;;;;;;;;;;;12.90;82.80;;;;;;5025826;28;19897;-87
2022/04/26 17:39:35;;;;;;;;;;;13.10;81.30;;;;;;5034002;28;19913;-87
2022/04/26 17:42:49;;;;;;;;;;;13.00;80.60;;;;;;5041649;28;20047;-85
2022/04/26 17:45:08;;;;;;;;;;;12.90;80.70;;;;;;5033515;28;20397;-83
2022/04/26 17:47:35;;;;;;;;;;;12.70;81.50;;;;;;5038211;28;20241;-86
2022/04/26 17:50:02;;;;;;;;;;;13.00;80.70;;;;;;5028841;28;19908;-82
2022/04/26 17:52:30;;;;;;;;;;;12.80;81.80;;;;;;5016234;28;20031;-82
2022/04/26 17:57:44;;;;;;;;;;;12.30;84.10;;;;;;5014689;28;20496;-82
2022/04/26 18:00:11;;;;;;;;;;;12.60;82.80;;;;;;5010266;28;20380;-80
2022/04/26 18:02:38;;;;;;;;;;;12.70;82.30;;;;;;5031624;28;20180;-81
2022/04/26 18:05:04;;;;;;;;;;;12.50;83.60;;;;;;5002371;28;19920;-83
2022/04/26 18:07:29;;;;;;;;;;;12.60;84.00;;;;;;5005023;28;19948;-80
2022/04/26 18:09:55;;;;;;;;;;;12.70;83.30;;;;;;5010360;28;20715;-83
2022/04/26 18:12:21;;;;;;;;;;;12.50;83.40;;;;;;5012677;28;20321;-82
2022/04/26 18:14:50;;;;;;;;;;;12.40;84.30;;;;;;5000130;28;19923;-82
2022/04/26 18:17:16;;;;;;;;;;;12.30;84.40;;;;;;5002312;28;20134;-81
2022/04/26 18:19:41;;;;;;;;;;;12.30;84.80;;;;;;5000647;28;19912;-82
2022/04/26 18:22:07;;;;;;;;;;;12.30;84.70;;;;;;5012572;28;19981;-81
2022/04/26 18:24:33;;;;;;;;;;;12.30;84.70;;;;;;5032671;28;19931;-81
2022/04/26 18:26:58;;;;;;;;;;;12.20;85.10;;;;;;5017559;28;19912;-80
2022/04/26 18:29:25;;;;;;;;;;;12.10;85.60;;;;;;5027051;28;20229;-83
2022/04/26 18:31:50;;;;;;;;;;;12.10;86.40;;;;;;5027955;28;20105;-85
2022/04/26 18:34:18;;;;;;;;;;;12.00;86.30;;;;;;5027357;28;20624;-80
2022/04/26 18:36:44;;;;;;;;;;;11.90;86.80;;;;;;5029163;28;20004;-83
2022/04/26 18:39:10;;;;;;;;;;;12.00;86.70;;;;;;5040278;28;20018;-83
2022/04/26 18:41:35;;;;;;;;;;;11.90;86.50;;;;;;5048906;28;19930;-84
2022/04/26 18:44:02;;;;;;;;;;;12.00;86.70;;;;;;5019347;28;19996;-81
2022/04/26 18:46:27;;;;;;;;;;;11.90;86.70;;;;;;5001649;28;19956;-81
2022/04/26 18:48:53;;;;;;;;;;;11.80;87.10;;;;;;5046262;28;19967;-83